Cyclone, Texas
Current Conditions -  °F | °C
As of 4:55 PM on Thursday 23 Oct 2014 (Local Time) from KT35 Reporting Station
Haze Haze  
Wind Chill: 80°   Ceiling: Unl
Heat Index: 80°   Visibility: 5mi
Dew Point: 58°   Wind: 3mph
Humidity: 46%   Direction: 110°ESE
Pressure: 30.07"   Gusts: NA
Location:  30.9882°N, 97.103°W
Report Text: KT35 232155Z AUTO 11003KT 5SM HZ CLR 27/14 A3007 RMK AO2 T02670142
Loading
Personal Weather Stations






























Interactive Weather Map New forecast layout! Learn more

10-Day Weather Forecast

Advertisements
Track Severe Weather on mobile